sensor_id;sensor_type;location;lat;lon;timestamp;temperature;humidity
52439;DHT22;38359;53.150;6.504;2022-12-07T00:04:23;4.50;99.90
52439;DHT22;38359;53.150;6.504;2022-12-07T00:14:49;4.20;99.90
52439;DHT22;38359;53.150;6.504;2022-12-07T00:25:14;4.20;99.90
52439;DHT22;38359;53.150;6.504;2022-12-07T00:35:40;4.40;99.90
52439;DHT22;38359;53.150;6.504;2022-12-07T00:46:06;4.20;99.90
52439;DHT22;38359;53.150;6.504;2022-12-07T00:56:32;4.50;99.90
52439;DHT22;38359;53.150;6.504;2022-12-07T01:06:58;4.60;99.90
52439;DHT22;38359;53.150;6.504;2022-12-07T01:17:23;4.80;99.90
52439;DHT22;38359;53.150;6.504;2022-12-07T01:27:49;4.90;99.90
52439;DHT22;38359;53.150;6.504;2022-12-07T01:38:15;4.70;99.90
52439;DHT22;38359;53.150;6.504;2022-12-07T01:48:41;4.70;99.90
52439;DHT22;38359;53.150;6.504;2022-12-07T01:59:08;4.70;99.90
52439;DHT22;38359;53.150;6.504;2022-12-07T02:09:33;4.50;99.90
52439;DHT22;38359;53.150;6.504;2022-12-07T02:31:10;4.60;99.90
52439;DHT22;38359;53.150;6.504;2022-12-07T02:41:56;4.40;99.90
52439;DHT22;38359;53.150;6.504;2022-12-07T02:52:27;4.60;99.90
52439;DHT22;38359;53.150;6.504;2022-12-07T03:03:12;4.80;99.90
52439;DHT22;38359;53.150;6.504;2022-12-07T03:13:59;4.80;99.90
52439;DHT22;38359;53.150;6.504;2022-12-07T03:24:58;5.00;99.90
52439;DHT22;38359;53.150;6.504;2022-12-07T03:35:34;4.50;99.90
52439;DHT22;38359;53.150;6.504;2022-12-07T03:46:34;4.70;99.90
52439;DHT22;38359;53.150;6.504;2022-12-07T03:57:08;4.50;99.90
52439;DHT22;38359;53.150;6.504;2022-12-07T04:07:34;4.40;99.90
52439;DHT22;38359;53.150;6.504;2022-12-07T04:18:00;4.40;99.90
52439;DHT22;38359;53.150;6.504;2022-12-07T04:28:26;4.40;99.90
52439;DHT22;38359;53.150;6.504;2022-12-07T04:38:55;4.20;99.90
52439;DHT22;38359;53.150;6.504;2022-12-07T04:49:21;4.30;99.90
52439;DHT22;38359;53.150;6.504;2022-12-07T04:59:47;4.50;99.90
52439;DHT22;38359;53.150;6.504;2022-12-07T05:10:13;4.90;99.90
52439;DHT22;38359;53.150;6.504;2022-12-07T05:20:39;4.40;99.90
52439;DHT22;38359;53.150;6.504;2022-12-07T05:31:06;4.30;99.90
52439;DHT22;38359;53.150;6.504;2022-12-07T05:41:31;4.10;99.90
52439;DHT22;38359;53.150;6.504;2022-12-07T05:52:16;3.50;99.90
52439;DHT22;38359;53.150;6.504;2022-12-07T06:02:42;3.80;99.90
52439;DHT22;38359;53.150;6.504;2022-12-07T06:13:08;3.50;99.90
52439;DHT22;38359;53.150;6.504;2022-12-07T06:23:34;3.30;99.90
52439;DHT22;38359;53.150;6.504;2022-12-07T06:34:02;3.70;99.90
52439;DHT22;38359;53.150;6.504;2022-12-07T06:44:29;4.00;99.90
52439;DHT22;38359;53.150;6.504;2022-12-07T06:54:55;3.60;99.90
52439;DHT22;38359;53.150;6.504;2022-12-07T07:05:21;3.50;99.90
52439;DHT22;38359;53.150;6.504;2022-12-07T07:15:47;3.40;99.90
52439;DHT22;38359;53.150;6.504;2022-12-07T07:26:13;3.50;99.90
52439;DHT22;38359;53.150;6.504;2022-12-07T07:36:39;3.90;99.90
52439;DHT22;38359;53.150;6.504;2022-12-07T07:47:04;3.70;99.90
52439;DHT22;38359;53.150;6.504;2022-12-07T07:57:30;3.20;99.90
52439;DHT22;38359;53.150;6.504;2022-12-07T08:18:41;3.30;99.90
52439;DHT22;38359;53.150;6.504;2022-12-07T08:29:08;3.30;99.90
52439;DHT22;38359;53.150;6.504;2022-12-07T08:39:33;3.30;99.90
52439;DHT22;38359;53.150;6.504;2022-12-07T08:50:01;3.20;99.90
52439;DHT22;38359;53.150;6.504;2022-12-07T09:00:28;3.50;99.90
52439;DHT22;38359;53.150;6.504;2022-12-07T09:10:54;3.70;99.90
52439;DHT22;38359;53.150;6.504;2022-12-07T09:21:20;4.40;99.90
52439;DHT22;38359;53.150;6.504;2022-12-07T09:31:46;4.80;99.90
52439;DHT22;38359;53.150;6.504;2022-12-07T09:42:26;4.70;99.90
52439;DHT22;38359;53.150;6.504;2022-12-07T09:53:00;4.80;99.90
52439;DHT22;38359;53.150;6.504;2022-12-07T10:03:38;4.60;99.90
52439;DHT22;38359;53.150;6.504;2022-12-07T10:14:13;4.70;99.90
52439;DHT22;38359;53.150;6.504;2022-12-07T10:24:41;4.50;99.90
52439;DHT22;38359;53.150;6.504;2022-12-07T10:35:27;4.80;99.90
52439;DHT22;38359;53.150;6.504;2022-12-07T11:08:03;6.10;99.90
52439;DHT22;38359;53.150;6.504;2022-12-07T11:40:24;5.20;99.90
52439;DHT22;38359;53.150;6.504;2022-12-07T11:50:57;4.80;99.90
52439;DHT22;38359;53.150;6.504;2022-12-07T12:02:12;5.30;99.90
52439;DHT22;38359;53.150;6.504;2022-12-07T12:24:02;6.10;99.90
52439;DHT22;38359;53.150;6.504;2022-12-07T12:45:25;5.90;99.90
52439;DHT22;38359;53.150;6.504;2022-12-07T13:06:37;5.50;99.90
52439;DHT22;38359;53.150;6.504;2022-12-07T13:17:03;5.00;99.90
52439;DHT22;38359;53.150;6.504;2022-12-07T13:27:30;5.10;99.90
52439;DHT22;38359;53.150;6.504;2022-12-07T13:37:56;4.90;99.90
52439;DHT22;38359;53.150;6.504;2022-12-07T13:48:31;5.10;99.90
52439;DHT22;38359;53.150;6.504;2022-12-07T13:58:59;4.90;99.90
52439;DHT22;38359;53.150;6.504;2022-12-07T14:09:26;5.00;99.90
52439;DHT22;38359;53.150;6.504;2022-12-07T14:19:57;4.90;99.90
52439;DHT22;38359;53.150;6.504;2022-12-07T14:30:30;4.50;99.90
52439;DHT22;38359;53.150;6.504;2022-12-07T14:40:57;4.60;99.90
52439;DHT22;38359;53.150;6.504;2022-12-07T14:51:44;4.60;99.90
52439;DHT22;38359;53.150;6.504;2022-12-07T15:02:13;4.30;99.90
52439;DHT22;38359;53.150;6.504;2022-12-07T15:12:39;4.30;99.90
52439;DHT22;38359;53.150;6.504;2022-12-07T15:23:06;4.30;99.90
52439;DHT22;38359;53.150;6.504;2022-12-07T15:33:32;3.90;99.90
52439;DHT22;38359;53.150;6.504;2022-12-07T15:43:58;3.60;99.90
52439;DHT22;38359;53.150;6.504;2022-12-07T15:54:42;3.50;99.90
52439;DHT22;38359;53.150;6.504;2022-12-07T16:05:08;3.70;99.90
52439;DHT22;38359;53.150;6.504;2022-12-07T16:15:38;3.40;99.90
52439;DHT22;38359;53.150;6.504;2022-12-07T16:26:22;3.50;99.90
52439;DHT22;38359;53.150;6.504;2022-12-07T16:36:48;3.60;99.90
52439;DHT22;38359;53.150;6.504;2022-12-07T16:47:14;3.70;99.90
52439;DHT22;38359;53.150;6.504;2022-12-07T16:57:40;3.60;99.90
52439;DHT22;38359;53.150;6.504;2022-12-07T17:08:05;3.70;99.90
52439;DHT22;38359;53.150;6.504;2022-12-07T17:18:36;3.50;99.90
52439;DHT22;38359;53.150;6.504;2022-12-07T17:29:05;3.50;99.90
52439;DHT22;38359;53.150;6.504;2022-12-07T17:39:33;3.50;99.90
52439;DHT22;38359;53.150;6.504;2022-12-07T17:49:59;3.30;99.90
52439;DHT22;38359;53.150;6.504;2022-12-07T18:00:24;3.50;99.90
52439;DHT22;38359;53.150;6.504;2022-12-07T18:10:58;3.40;99.90
52439;DHT22;38359;53.150;6.504;2022-12-07T18:21:26;3.60;99.90
52439;DHT22;38359;53.150;6.504;2022-12-07T18:31:52;3.40;99.90
52439;DHT22;38359;53.150;6.504;2022-12-07T18:42:18;3.40;99.90
52439;DHT22;38359;53.150;6.504;2022-12-07T18:52:43;3.20;99.90
52439;DHT22;38359;53.150;6.504;2022-12-07T19:03:09;3.20;99.90
52439;DHT22;38359;53.150;6.504;2022-12-07T19:13:35;2.90;99.90
52439;DHT22;38359;53.150;6.504;2022-12-07T19:24:05;3.30;99.90
52439;DHT22;38359;53.150;6.504;2022-12-07T19:34:31;3.10;99.90
52439;DHT22;38359;53.150;6.504;2022-12-07T19:44:57;3.20;99.90
52439;DHT22;38359;53.150;6.504;2022-12-07T19:55:23;3.30;99.90
52439;DHT22;38359;53.150;6.504;2022-12-07T20:05:49;2.90;99.90
52439;DHT22;38359;53.150;6.504;2022-12-07T20:16:14;3.10;99.90
52439;DHT22;38359;53.150;6.504;2022-12-07T20:26:40;2.80;99.90
52439;DHT22;38359;53.150;6.504;2022-12-07T20:37:06;2.90;99.90
52439;DHT22;38359;53.150;6.504;2022-12-07T20:47:32;2.90;99.90
52439;DHT22;38359;53.150;6.504;2022-12-07T20:57:59;2.60;99.90
52439;DHT22;38359;53.150;6.504;2022-12-07T21:08:25;2.80;99.90
52439;DHT22;38359;53.150;6.504;2022-12-07T21:18:53;2.70;99.90
52439;DHT22;38359;53.150;6.504;2022-12-07T21:29:20;2.80;99.90
52439;DHT22;38359;53.150;6.504;2022-12-07T21:39:45;2.80;99.90
52439;DHT22;38359;53.150;6.504;2022-12-07T21:50:11;2.80;99.90
52439;DHT22;38359;53.150;6.504;2022-12-07T22:00:37;3.00;99.90
52439;DHT22;38359;53.150;6.504;2022-12-07T22:11:04;2.70;99.90
52439;DHT22;38359;53.150;6.504;2022-12-07T22:21:30;2.70;99.90
52439;DHT22;38359;53.150;6.504;2022-12-07T22:31:56;2.90;99.90
52439;DHT22;38359;53.150;6.504;2022-12-07T22:42:22;3.00;99.90
52439;DHT22;38359;53.150;6.504;2022-12-07T22:52:48;3.00;99.90
52439;DHT22;38359;53.150;6.504;2022-12-07T23:03:13;2.90;99.90
52439;DHT22;38359;53.150;6.504;2022-12-07T23:13:39;2.90;99.90
52439;DHT22;38359;53.150;6.504;2022-12-07T23:24:05;2.50;99.90
52439;DHT22;38359;53.150;6.504;2022-12-07T23:34:31;2.50;99.90
52439;DHT22;38359;53.150;6.504;2022-12-07T23:44:57;2.70;99.90
52439;DHT22;38359;53.150;6.504;2022-12-07T23:55:23;2.70;99.90
